Impacts TAF Board
For situational awareness. Not to be used for flight planning purposes.
IDs:

KCHO - Charlottesville/Albe, VA, US

Issued at 0520 UTC 11 May 2021
Updated at 1040 UTC 11 May 2021
Potential Impact None Slight Moderate High
Time0953Z 11/11Z 11/12Z 11/13Z 11/14Z 11/15Z 11/16Z 11/17Z 11/18Z 11/19Z 11/20Z 11/21Z 11/22Z 11/23Z>>
Type OBS PRVL PRVL PRVL PRVL PRVL PRVL PRVL PRVL PRVL PRVL PRVL PRVL PRVL
VIS 10 >6 >6 >6 >6 >6 >6 >6 >6 >6 >6 >6 >6 >6
CIG 100 100 100 100 100 100 100 100 100 100 90 90 90 90
Cover BKN BKN BKN BKN BKN BKN BKN BKN BKN BKN BKN BKN BKN BKN
FltCat VFR VFR VFR VFR VFR VFR VFR VFR VFR VFR VFR VFR VFR VFR
WX -- -- -- -- -- -- -- -- -- -- -- -- -- --
WDir VRB VRB VRB VRB VRB VRB VRB VRB VRB VRB 280 280 280 280
WSpd 0 0 0 0 0 0 0 0 0 0 7 7 7 7
WGst -- -- -- -- -- -- -- -- -- -- -- -- -- --
Raw TAF
KCHO 110520Z 1106/1206 VRB03KT P6SM OVC070
  FM110800 00000KT P6SM BKN100
  FM112000 28007KT P6SM BKN090
  FM120500 35004KT P6SM SCT150


Raw METAR
KCHO 110953Z 00000KT 10SM BKN100 11/06 A3009 RMK AO2 SLP185 T01110056
KCHO 110853Z AUTO 00000KT 10SM FEW060 SCT095 OVC110 12/04 A3008 RMK AO2 SLP182 T01170044 58001
KCHO 110753Z AUTO 00000KT 10SM FEW070 BKN090 OVC110 12/05 A3009 RMK AO2 SLP184 T01220050

METAR Board
Radar Display
Forecast Discussion
For situational awareness. Not to be used for flight planning purposes.